createdAt,value
2019-03-27T00:00:05.143Z,11.26
2019-03-27T00:00:45.567Z,11.23
2019-03-27T00:01:25.954Z,11.21
2019-03-27T00:02:06.369Z,11.16
2019-03-27T00:02:46.787Z,11.17
2019-03-27T00:03:27.224Z,11.11
2019-03-27T00:04:07.704Z,11.24
2019-03-27T00:04:48.057Z,11.11
2019-03-27T00:05:28.479Z,11.13
2019-03-27T00:06:08.884Z,11.08
2019-03-27T00:06:49.308Z,11.08
2019-03-27T00:07:29.744Z,11.09
2019-03-27T00:08:10.129Z,11.16
2019-03-27T00:08:50.564Z,11.16
2019-03-27T00:09:31.039Z,11.08
2019-03-27T00:10:11.427Z,11.19
2019-03-27T00:10:51.842Z,11.21
2019-03-27T00:11:32.252Z,11.11
2019-03-27T00:12:12.660Z,11.11
2019-03-27T00:12:53.121Z,11.13
2019-03-27T00:13:33.563Z,11.19
2019-03-27T00:14:13.969Z,11.08
2019-03-27T00:14:54.409Z,11.09
2019-03-27T00:15:34.804Z,11.09
2019-03-27T00:16:15.239Z,11.11
2019-03-27T00:16:55.629Z,11.16
2019-03-27T00:17:36.073Z,11.11
2019-03-27T00:18:16.479Z,11.11
2019-03-27T00:18:56.883Z,11.08
2019-03-27T00:19:37.307Z,11.13
2019-03-27T00:20:17.741Z,11.03
2019-03-27T00:20:58.173Z,11.03
2019-03-27T00:21:38.565Z,11.06
2019-03-27T00:22:18.992Z,11.09
2019-03-27T00:22:59.422Z,11.06
2019-03-27T00:23:39.850Z,11.01
2019-03-27T00:24:20.265Z,10.98
2019-03-27T00:25:00.682Z,10.99
2019-03-27T00:25:41.147Z,10.99
2019-03-27T00:26:21.571Z,10.87
2019-03-27T00:27:02.028Z,10.9
2019-03-27T00:27:42.450Z,10.75
2019-03-27T00:28:22.881Z,10.72
2019-03-27T00:29:03.297Z,10.78
2019-03-27T00:29:43.731Z,10.73
2019-03-27T00:30:24.151Z,10.65
2019-03-27T00:31:04.549Z,10.66
2019-03-27T00:31:44.987Z,10.62
2019-03-27T00:32:25.433Z,10.62
2019-03-27T00:33:05.815Z,10.69
2019-03-27T00:33:46.238Z,10.68
2019-03-27T00:34:26.665Z,10.6
2019-03-27T00:35:07.087Z,10.62
2019-03-27T00:35:47.508Z,10.7
2019-03-27T00:36:27.927Z,10.66
2019-03-27T00:37:08.375Z,10.78
2019-03-27T00:37:48.792Z,10.86
2019-03-27T00:38:29.222Z,10.76
2019-03-27T00:39:09.636Z,10.88
2019-03-27T00:39:50.061Z,10.88
2019-03-27T00:40:30.477Z,10.87
2019-03-27T00:41:10.898Z,10.98
2019-03-27T00:41:51.309Z,11.05
2019-03-27T00:42:31.749Z,11.02
2019-03-27T00:43:12.196Z,11.06
2019-03-27T00:43:52.619Z,11.03
2019-03-27T00:44:33.032Z,11.09
2019-03-27T00:45:25.687Z,11.2
2019-03-27T00:45:53.878Z,11.21
2019-03-27T00:46:34.265Z,11.23
2019-03-27T00:47:14.722Z,11.28
2019-03-27T00:47:55.105Z,11.36
2019-03-27T00:48:35.520Z,11.46
2019-03-27T00:49:15.942Z,11.48
2019-03-27T00:49:56.355Z,11.54
2019-03-27T00:50:36.965Z,11.51
2019-03-27T00:51:17.414Z,11.54
2019-03-27T00:51:57.822Z,11.6
2019-03-27T00:52:38.254Z,11.6
2019-03-27T00:53:18.670Z,11.6
2019-03-27T00:53:59.073Z,11.66
2019-03-27T00:54:39.488Z,11.59
2019-03-27T00:55:19.932Z,11.66
2019-03-27T00:56:00.351Z,11.64
2019-03-27T00:56:40.767Z,11.67
2019-03-27T00:57:21.211Z,11.67
2019-03-27T00:58:01.677Z,11.64
2019-03-27T00:58:42.073Z,11.67
2019-03-27T00:59:22.519Z,11.63
2019-03-27T01:00:02.900Z,11.64
2019-03-27T01:00:43.299Z,11.62
2019-03-27T01:01:23.720Z,11.66
2019-03-27T01:02:04.164Z,11.59
2019-03-27T01:02:44.533Z,11.62
2019-03-27T01:03:24.971Z,11.63
2019-03-27T01:04:05.379Z,11.6
2019-03-27T01:04:45.804Z,11.56
2019-03-27T01:05:26.233Z,11.51
2019-03-27T01:06:06.719Z,11.56
2019-03-27T01:06:47.090Z,11.54
2019-03-27T01:07:27.529Z,11.49
2019-03-27T01:08:07.968Z,11.48
2019-03-27T01:08:48.353Z,11.51
2019-03-27T01:09:28.771Z,11.46
2019-03-27T01:10:09.240Z,11.31
2019-03-27T01:10:49.645Z,11.3
2019-03-27T01:11:30.078Z,11.35
2019-03-27T01:12:10.487Z,11.24
2019-03-27T01:12:50.940Z,11.2
2019-03-27T01:13:31.329Z,11.23
2019-03-27T01:14:11.754Z,11.24
2019-03-27T01:14:52.170Z,11.24
2019-03-27T01:15:39.453Z,11.16
2019-03-27T01:16:13.022Z,11.19
2019-03-27T01:16:53.421Z,11.19
2019-03-27T01:17:33.867Z,11.24
2019-03-27T01:18:14.294Z,11.19
2019-03-27T01:18:54.720Z,11.21
2019-03-27T01:19:35.159Z,11.19
2019-03-27T01:20:15.580Z,11.26
2019-03-27T01:20:55.984Z,11.3
2019-03-27T01:21:36.447Z,11.27
2019-03-27T01:22:16.865Z,11.3
2019-03-27T01:22:57.221Z,11.39
2019-03-27T01:23:37.645Z,11.54
2019-03-27T01:24:18.069Z,11.53
2019-03-27T01:24:58.465Z,11.54
2019-03-27T01:25:38.942Z,11.51
2019-03-27T01:26:19.291Z,11.56
2019-03-27T01:26:59.715Z,11.53
2019-03-27T01:27:40.137Z,11.56
2019-03-27T01:28:20.543Z,11.44
2019-03-27T01:29:00.935Z,11.46
2019-03-27T01:29:41.336Z,11.57
2019-03-27T01:30:21.741Z,11.51
2019-03-27T01:31:02.163Z,11.49
2019-03-27T01:31:42.594Z,11.46
2019-03-27T01:32:22.986Z,11.46
2019-03-27T01:33:03.386Z,11.36
2019-03-27T01:33:43.806Z,11.42
2019-03-27T01:34:24.206Z,11.45
2019-03-27T01:35:04.653Z,11.53
2019-03-27T01:35:45.050Z,11.46
2019-03-27T01:36:25.474Z,11.49
2019-03-27T01:37:05.906Z,11.54
2019-03-27T01:37:46.329Z,11.6
2019-03-27T01:38:28.858Z,11.51
2019-03-27T01:39:07.188Z,11.57
2019-03-27T01:39:47.613Z,11.56
2019-03-27T01:40:28.028Z,11.51
2019-03-27T01:41:08.473Z,11.48
2019-03-27T01:41:48.888Z,11.49
2019-03-27T01:42:29.312Z,11.51
2019-03-27T01:43:09.697Z,11.56
2019-03-27T01:43:50.157Z,11.51
2019-03-27T01:44:30.542Z,11.44
2019-03-27T01:45:10.984Z,11.42
2019-03-27T01:45:53.138Z,11.26
2019-03-27T01:46:31.810Z,11.3
2019-03-27T01:47:12.256Z,11.19
2019-03-27T01:47:52.746Z,11.11
2019-03-27T01:48:33.126Z,11.08
2019-03-27T01:49:13.510Z,11.09
2019-03-27T01:49:53.961Z,11.01
2019-03-27T01:50:34.359Z,10.88
2019-03-27T01:51:14.780Z,10.81
2019-03-27T01:51:55.198Z,10.73
2019-03-27T01:52:35.652Z,10.7
2019-03-27T01:53:16.058Z,10.69
2019-03-27T01:53:56.457Z,10.72
2019-03-27T01:54:36.892Z,10.68
2019-03-27T01:55:17.318Z,10.62
2019-03-27T01:55:57.776Z,10.63
2019-03-27T01:56:38.149Z,10.66
2019-03-27T01:57:18.583Z,10.69
2019-03-27T01:57:59.006Z,10.55
2019-03-27T01:58:39.476Z,10.63
2019-03-27T01:59:19.906Z,10.52
2019-03-27T02:00:00.342Z,10.58
2019-03-27T02:00:40.758Z,10.6
2019-03-27T02:01:21.198Z,10.52
2019-03-27T02:02:01.577Z,10.69
2019-03-27T02:02:42.018Z,10.65
2019-03-27T02:03:22.439Z,10.68
2019-03-27T02:04:02.822Z,10.68
2019-03-27T02:04:43.266Z,10.69
2019-03-27T02:05:23.687Z,10.58
2019-03-27T02:06:04.111Z,10.54
2019-03-27T02:06:44.518Z,10.57
2019-03-27T02:07:24.935Z,10.6
2019-03-27T02:08:05.366Z,10.7
2019-03-27T02:08:45.806Z,10.72
2019-03-27T02:09:26.229Z,10.75
2019-03-27T02:10:06.645Z,10.84
2019-03-27T02:10:47.061Z,10.88
2019-03-27T02:11:27.491Z,10.94
2019-03-27T02:12:07.901Z,10.91
2019-03-27T02:12:48.321Z,10.88
2019-03-27T02:13:28.777Z,10.91
2019-03-27T02:14:09.216Z,10.93
2019-03-27T02:14:49.618Z,10.87
2019-03-27T02:15:30.074Z,10.91
2019-03-27T02:16:10.499Z,10.86
2019-03-27T02:16:50.886Z,10.84
2019-03-27T02:17:31.333Z,10.87
2019-03-27T02:18:11.731Z,10.87
2019-03-27T02:18:52.152Z,10.88
2019-03-27T02:19:32.578Z,10.86
2019-03-27T02:20:13.002Z,10.88
2019-03-27T02:20:53.414Z,10.99
2019-03-27T02:21:33.837Z,11.01
2019-03-27T02:22:14.248Z,11.05
2019-03-27T02:22:54.661Z,11.03
2019-03-27T02:23:35.089Z,11.16
2019-03-27T02:24:15.507Z,11.13
2019-03-27T02:24:55.985Z,11.23
2019-03-27T02:25:36.365Z,11.19
2019-03-27T02:26:16.762Z,11.21
2019-03-27T02:26:57.183Z,11.21
2019-03-27T02:27:37.607Z,11.16
2019-03-27T02:28:18.015Z,11.11
2019-03-27T02:28:58.420Z,11.13
2019-03-27T02:29:38.870Z,11.09
2019-03-27T02:30:19.239Z,11.02
2019-03-27T02:30:59.661Z,10.94
2019-03-27T02:31:40.100Z,10.95
2019-03-27T02:32:21.065Z,10.88
2019-03-27T02:33:00.967Z,10.88
2019-03-27T02:33:41.405Z,10.88
2019-03-27T02:34:21.856Z,10.72
2019-03-27T02:35:02.240Z,10.86
2019-03-27T02:35:42.651Z,10.83
2019-03-27T02:36:23.069Z,10.8
2019-03-27T02:37:03.477Z,10.76
2019-03-27T02:37:43.893Z,10.72
2019-03-27T02:38:24.311Z,10.83
2019-03-27T02:39:04.733Z,10.86
2019-03-27T02:39:45.167Z,10.86
2019-03-27T02:40:25.584Z,10.9
2019-03-27T02:41:06.013Z,10.91
2019-03-27T02:41:46.467Z,10.99
2019-03-27T02:42:26.838Z,11.11
2019-03-27T02:43:07.295Z,11.08
2019-03-27T02:43:47.667Z,11.11
2019-03-27T02:44:28.097Z,11.06
2019-03-27T02:45:08.516Z,11.12
2019-03-27T02:45:48.907Z,11.03
2019-03-27T02:46:29.303Z,11.11
2019-03-27T02:47:09.739Z,11.19
2019-03-27T02:47:50.176Z,11.17
2019-03-27T02:48:30.599Z,11.19
2019-03-27T02:49:11.018Z,11.23
2019-03-27T02:49:51.610Z,11.28
2019-03-27T02:50:31.916Z,11.24
2019-03-27T02:51:12.381Z,11.23
2019-03-27T02:51:52.812Z,11.31
2019-03-27T02:52:33.241Z,11.27
2019-03-27T02:53:13.681Z,11.3
2019-03-27T02:53:54.101Z,11.28
2019-03-27T02:54:34.512Z,11.44
2019-03-27T02:55:14.939Z,11.35
2019-03-27T02:55:55.366Z,11.3
2019-03-27T02:56:35.807Z,11.26
2019-03-27T02:57:16.232Z,11.23
2019-03-27T02:57:56.647Z,11.19
2019-03-27T02:59:44.319Z,11.23
2019-03-27T03:00:24.668Z,11.23
2019-03-27T03:01:05.096Z,11.28
2019-03-27T03:01:47.936Z,11.35
2019-03-27T03:02:25.912Z,11.39
2019-03-27T03:03:06.356Z,11.36
2019-03-27T03:03:46.771Z,11.44
2019-03-27T03:04:27.218Z,11.31
2019-03-27T03:05:07.740Z,11.35
2019-03-27T03:05:48.141Z,11.24
2019-03-27T03:06:28.537Z,11.21
2019-03-27T03:07:08.956Z,11.24
2019-03-27T03:07:49.377Z,11.16
2019-03-27T03:08:29.808Z,11.19
2019-03-27T03:09:10.222Z,11.19
2019-03-27T03:09:50.656Z,11.27
2019-03-27T03:10:31.084Z,11.21
2019-03-27T03:11:11.505Z,11.24
2019-03-27T03:11:51.908Z,11.2
2019-03-27T03:12:32.323Z,11.2
2019-03-27T03:13:12.742Z,11.17
2019-03-27T03:13:53.155Z,11.08
2019-03-27T03:14:33.563Z,11.12
2019-03-27T03:15:13.964Z,11.08
2019-03-27T03:15:54.378Z,11.06
2019-03-27T03:16:41.673Z,10.99
2019-03-27T03:17:15.203Z,10.93
2019-03-27T03:17:55.630Z,10.78
2019-03-27T03:18:36.065Z,10.68
2019-03-27T03:19:16.465Z,10.6
2019-03-27T03:19:56.879Z,10.57
2019-03-27T03:20:37.314Z,10.51
2019-03-27T03:21:17.713Z,10.34
2019-03-27T03:21:58.134Z,10.28
2019-03-27T03:22:38.661Z,10.25
2019-03-27T03:23:19.085Z,10.29
2019-03-27T03:23:59.518Z,10.22
2019-03-27T03:24:39.881Z,10.25
2019-03-27T03:25:20.283Z,10.25
2019-03-27T03:26:00.730Z,10.07
2019-03-27T03:26:41.145Z,10.1
2019-03-27T03:27:21.567Z,10.11
2019-03-27T03:28:02.005Z,10.17
2019-03-27T03:28:42.387Z,10.18
2019-03-27T03:29:22.798Z,10.26
2019-03-27T03:30:03.181Z,10.32
2019-03-27T03:30:43.623Z,10.36
2019-03-27T03:31:24.014Z,10.39
2019-03-27T03:32:04.402Z,10.28
2019-03-27T03:32:44.834Z,10.35
2019-03-27T03:33:25.217Z,10.42
2019-03-27T03:34:05.625Z,10.29
2019-03-27T03:34:46.039Z,10.35
2019-03-27T03:35:26.501Z,10.34
2019-03-27T03:36:06.881Z,10.31
2019-03-27T03:36:47.301Z,10.32
2019-03-27T03:37:27.734Z,10.36
2019-03-27T03:38:08.140Z,10.25
2019-03-27T03:38:48.554Z,10.28
2019-03-27T03:39:28.962Z,10.31
2019-03-27T03:40:09.381Z,10.25
2019-03-27T03:40:49.750Z,10.22
2019-03-27T03:41:30.208Z,10.25
2019-03-27T03:42:10.581Z,10.16
2019-03-27T03:42:50.974Z,10.09
2019-03-27T03:43:31.381Z,9.96
2019-03-27T03:44:11.790Z,10.02
2019-03-27T03:44:52.208Z,9.93
2019-03-27T03:45:32.646Z,9.93
2019-03-27T03:46:13.074Z,9.98
2019-03-27T03:46:59.809Z,10.02
2019-03-27T03:47:33.887Z,9.99
2019-03-27T03:48:14.313Z,10.06
2019-03-27T03:48:54.741Z,10.06
2019-03-27T03:49:35.161Z,9.96
2019-03-27T03:50:15.581Z,10.04
2019-03-27T03:50:55.994Z,10.01
2019-03-27T03:51:36.426Z,10.04
2019-03-27T03:52:16.838Z,10.1
2019-03-27T03:52:57.275Z,10.17
2019-03-27T03:53:37.707Z,10.18
2019-03-27T03:54:18.126Z,10.2
2019-03-27T03:54:58.551Z,10.25
2019-03-27T03:55:38.998Z,10.28
2019-03-27T03:56:19.405Z,10.26
2019-03-27T03:56:59.807Z,10.22
2019-03-27T03:57:40.241Z,10.28
2019-03-27T03:58:20.655Z,10.28
2019-03-27T03:59:01.064Z,10.32
2019-03-27T03:59:41.479Z,10.28
2019-03-27T04:00:21.883Z,10.34
2019-03-27T04:01:02.304Z,10.47
2019-03-27T04:01:42.759Z,10.47
2019-03-27T04:02:23.172Z,10.46
2019-03-27T04:03:03.606Z,10.46
2019-03-27T04:03:44.043Z,10.57
2019-03-27T04:04:24.470Z,10.54
2019-03-27T04:05:04.894Z,10.57
2019-03-27T04:05:45.317Z,10.55
2019-03-27T04:06:25.727Z,10.54
2019-03-27T04:07:06.180Z,10.68
2019-03-27T04:07:46.566Z,10.66
2019-03-27T04:08:26.996Z,10.66
2019-03-27T04:09:07.421Z,10.68
2019-03-27T04:09:47.860Z,10.73
2019-03-27T04:10:28.284Z,10.87
2019-03-27T04:11:08.712Z,10.86
2019-03-27T04:11:49.135Z,10.93
2019-03-27T04:12:29.561Z,10.93
2019-03-27T04:13:09.984Z,10.87
2019-03-27T04:13:50.531Z,10.88
2019-03-27T04:14:30.834Z,10.88
2019-03-27T04:15:11.250Z,10.88
2019-03-27T04:15:51.661Z,10.87
2019-03-27T04:16:32.048Z,10.86
2019-03-27T04:17:17.238Z,10.73
2019-03-27T04:17:52.914Z,10.78
2019-03-27T04:18:33.331Z,10.75
2019-03-27T04:19:13.911Z,10.63
2019-03-27T04:19:54.339Z,10.73
2019-03-27T04:20:34.752Z,10.65
2019-03-27T04:21:15.177Z,10.58
2019-03-27T04:21:55.608Z,10.52
2019-03-27T04:22:36.018Z,10.47
2019-03-27T04:23:16.449Z,10.47
2019-03-27T04:23:56.855Z,10.51
2019-03-27T04:24:37.260Z,10.29
2019-03-27T04:25:17.679Z,10.35
2019-03-27T04:26:09.424Z,10.29
2019-03-27T04:26:38.511Z,10.26
2019-03-27T04:27:18.929Z,10.24
2019-03-27T04:27:59.373Z,10.22
2019-03-27T04:28:39.768Z,10.28
2019-03-27T05:06:28.891Z,8.4
2019-03-27T05:07:09.262Z,8.43
2019-03-27T05:07:49.692Z,8.4
2019-03-27T05:08:30.103Z,8.37
2019-03-27T05:09:10.516Z,8.5
2019-03-27T05:09:50.915Z,8.58
2019-03-27T05:12:03.742Z,8.6
2019-03-27T05:12:44.103Z,8.54
2019-03-27T05:13:24.520Z,8.58
2019-03-27T05:14:04.919Z,8.67
2019-03-27T05:14:45.386Z,8.73
2019-03-27T05:15:25.741Z,8.79
2019-03-27T05:16:06.150Z,8.78
2019-03-27T05:16:46.589Z,8.76
2019-03-27T05:17:27.005Z,8.85
2019-03-27T05:18:07.425Z,8.8
2019-03-27T05:18:47.849Z,8.82
2019-03-27T05:19:28.316Z,8.83
2019-03-27T05:20:08.686Z,8.73
2019-03-27T05:20:49.069Z,8.76
2019-03-27T05:21:29.504Z,8.73
2019-03-27T05:22:09.907Z,8.75
2019-03-27T05:22:50.318Z,8.65
2019-03-27T05:23:30.736Z,8.7
2019-03-27T05:24:11.141Z,8.76
2019-03-27T05:24:51.552Z,8.65
2019-03-27T05:25:31.988Z,8.68
2019-03-27T05:26:12.409Z,8.58
2019-03-27T05:26:52.854Z,8.6
2019-03-27T05:27:36.120Z,8.8
2019-03-27T05:28:13.714Z,8.71
2019-03-27T05:28:54.200Z,8.71
2019-03-27T05:29:34.604Z,8.86
2019-03-27T05:30:15.040Z,8.91
2019-03-27T05:30:55.478Z,8.88
2019-03-27T05:31:35.924Z,8.89
2019-03-27T05:32:16.372Z,8.93
2019-03-27T05:32:56.769Z,8.79
2019-03-27T05:33:37.186Z,8.82
2019-03-27T05:34:17.591Z,8.88
2019-03-27T05:34:58.059Z,8.86
2019-03-27T05:35:38.449Z,8.82
2019-03-27T05:36:18.864Z,8.88
2019-03-27T05:36:59.276Z,8.91
2019-03-27T05:37:39.721Z,8.79
2019-03-27T05:38:20.133Z,8.76
2019-03-27T05:39:00.586Z,8.78
2019-03-27T05:39:40.984Z,8.76
2019-03-27T05:40:21.410Z,8.75
2019-03-27T05:41:01.813Z,8.78
2019-03-27T05:41:42.237Z,8.8
2019-03-27T05:42:22.682Z,8.8
2019-03-27T05:43:03.099Z,8.78
2019-03-27T05:43:43.532Z,8.64
2019-03-27T05:44:23.978Z,8.7
2019-03-27T05:45:04.377Z,8.64
2019-03-27T05:45:44.883Z,8.7
2019-03-27T05:46:26.613Z,8.7
2019-03-27T05:47:05.600Z,8.71
2019-03-27T05:47:58.540Z,8.68
2019-03-27T05:48:26.445Z,8.7
2019-03-27T05:49:06.909Z,8.63
2019-03-27T05:49:47.328Z,8.67
2019-03-27T05:50:27.742Z,8.57
2019-03-27T05:51:08.213Z,8.6
2019-03-27T05:51:48.640Z,8.6
2019-03-27T05:52:29.006Z,8.57
2019-03-27T05:53:09.397Z,8.54
2019-03-27T05:53:49.826Z,8.54
2019-03-27T05:54:30.238Z,8.47
2019-03-27T05:55:10.652Z,8.49
2019-03-27T05:55:51.051Z,8.49
2019-03-27T05:56:31.469Z,8.43
2019-03-27T05:57:11.811Z,8.58
2019-03-27T05:57:52.240Z,8.47
2019-03-27T05:58:32.646Z,8.54
2019-03-27T05:59:13.033Z,8.6
2019-03-27T05:59:53.431Z,8.68
2019-03-27T06:00:33.860Z,8.76
2019-03-27T06:01:14.272Z,8.7
2019-03-27T06:01:54.704Z,8.71
2019-03-27T06:02:35.120Z,8.8
2019-03-27T06:03:15.551Z,8.82
2019-03-27T06:03:55.995Z,8.79
2019-03-27T06:04:36.410Z,8.76
2019-03-27T06:05:16.818Z,8.83
2019-03-27T06:05:57.267Z,8.8
2019-03-27T06:06:37.683Z,8.73
2019-03-27T06:07:18.143Z,8.76
2019-03-27T06:07:58.574Z,8.82
2019-03-27T06:08:42.617Z,8.91
2019-03-27T06:09:23.088Z,8.85
2019-03-27T06:10:03.521Z,8.93
2019-03-27T06:10:43.941Z,8.91
2019-03-27T06:11:24.427Z,8.91
2019-03-27T06:12:04.963Z,9
2019-03-27T06:12:45.383Z,9.08
2019-03-27T06:13:25.805Z,9.08
2019-03-27T06:14:06.255Z,9.08
2019-03-27T06:14:46.684Z,9.15
2019-03-27T06:15:27.104Z,9.13
2019-03-27T06:16:07.542Z,9.17
2019-03-27T06:16:47.972Z,9.17
2019-03-27T06:17:28.382Z,9.2
2019-03-27T06:18:13.170Z,9.19
2019-03-27T06:18:49.224Z,9.23
2019-03-27T06:19:29.623Z,9.24
2019-03-27T06:20:10.042Z,9.34
2019-03-27T06:20:50.466Z,9.31
2019-03-27T06:21:30.869Z,9.31
2019-03-27T06:22:11.286Z,9.35
2019-03-27T06:22:51.709Z,9.38
2019-03-27T06:23:32.143Z,9.49
2019-03-27T06:24:13.601Z,9.42
2019-03-27T06:24:54.021Z,9.4
2019-03-27T06:25:34.441Z,9.35
2019-03-27T06:26:14.855Z,9.41
2019-03-27T06:26:55.265Z,9.4
2019-03-27T06:27:35.689Z,9.5
2019-03-27T06:28:16.116Z,9.42
2019-03-27T06:28:56.545Z,9.55
2019-03-27T06:29:36.954Z,9.6
2019-03-27T06:30:17.421Z,9.65
2019-03-27T06:30:58.381Z,9.65
2019-03-27T06:31:38.741Z,9.71
2019-03-27T06:32:19.187Z,9.68
2019-03-27T06:32:59.619Z,9.67
2019-03-27T06:33:40.016Z,9.8
2019-03-27T06:34:20.446Z,9.74
2019-03-27T06:35:00.869Z,9.89
2019-03-27T06:35:41.279Z,9.81
2019-03-27T06:36:21.697Z,9.74
2019-03-27T06:37:02.088Z,9.86
2019-03-27T06:37:42.501Z,9.85
2019-03-27T06:38:22.886Z,9.95
2019-03-27T06:39:03.290Z,9.98
2019-03-27T06:39:43.680Z,9.95
2019-03-27T06:40:24.089Z,10.02
2019-03-27T06:41:04.500Z,9.96
2019-03-27T06:41:44.923Z,10.04
2019-03-27T06:42:25.339Z,10.06
2019-03-27T06:43:05.775Z,10.06
2019-03-27T06:43:46.231Z,10.14
2019-03-27T06:44:26.606Z,10.11
2019-03-27T06:45:07.052Z,10.2
2019-03-27T06:45:47.454Z,10.25
2019-03-27T06:46:27.852Z,10.32
2019-03-27T06:47:08.300Z,10.26
2019-03-27T06:47:48.668Z,10.2
2019-03-27T06:48:29.070Z,10.25
2019-03-27T06:49:09.489Z,10.42
2019-03-27T06:49:50.449Z,10.32
2019-03-27T06:50:30.967Z,10.38
2019-03-27T06:51:11.413Z,10.44
2019-03-27T06:51:51.956Z,10.46
2019-03-27T06:53:34.561Z,10.58
2019-03-27T06:54:16.810Z,10.68
2019-03-27T06:54:57.280Z,10.65
2019-03-27T06:55:37.686Z,10.68
2019-03-27T06:56:18.093Z,10.73
2019-03-27T06:57:01.090Z,10.72
2019-03-27T06:58:57.206Z,10.87
2019-03-27T06:59:38.235Z,10.87
2019-03-27T07:00:18.696Z,10.99
2019-03-27T07:00:59.101Z,10.98
2019-03-27T07:01:39.577Z,11.08
2019-03-27T07:02:20.118Z,11.06
2019-03-27T07:03:00.430Z,11.16
2019-03-27T07:03:41.258Z,11.12
2019-03-27T07:04:21.604Z,11.2
2019-03-27T07:05:02.132Z,11.06
2019-03-27T07:05:42.487Z,11.11
2019-03-27T07:06:23.893Z,11.03
2019-03-27T07:07:04.333Z,11.09
2019-03-27T07:07:44.735Z,11.12
2019-03-27T07:08:25.263Z,11.09
2019-03-27T07:09:05.968Z,11.09
2019-03-27T07:09:46.416Z,11.16
2019-03-27T07:10:26.875Z,11.26
2019-03-27T07:11:07.295Z,11.23
2019-03-27T07:11:47.769Z,11.27
2019-03-27T07:12:28.198Z,11.3
2019-03-27T07:13:08.789Z,11.39
2019-03-27T07:13:49.320Z,11.48
2019-03-27T07:14:29.759Z,11.51
2019-03-27T07:15:10.568Z,11.53
2019-03-27T07:15:51.047Z,11.54
2019-03-27T07:16:31.909Z,11.57
2019-03-27T07:17:14.035Z,11.49
2019-03-27T07:17:54.745Z,11.49
2019-03-27T07:20:14.483Z,11.59
2019-03-27T07:20:54.275Z,11.66
2019-03-27T07:21:34.842Z,11.69
2019-03-27T07:22:15.906Z,11.84
2019-03-27T07:22:55.858Z,11.75
2019-03-27T07:23:36.311Z,11.72
2019-03-27T07:24:16.969Z,11.79
2019-03-27T07:24:57.698Z,11.85
2019-03-27T07:25:38.055Z,11.96
2019-03-27T07:26:18.508Z,11.96
2019-03-27T07:27:00.571Z,12.13
2019-03-27T07:27:41.031Z,12.03
2019-03-27T07:29:29.868Z,12
2019-03-27T07:30:10.134Z,12.12
2019-03-27T07:30:50.587Z,12.03
2019-03-27T07:31:32.672Z,12.13
2019-03-27T07:32:13.093Z,12.12
2019-03-27T07:32:53.627Z,12.15
2019-03-27T07:33:33.949Z,12.13
2019-03-27T07:35:22.231Z,12.12
2019-03-27T07:36:04.158Z,12.13
2019-03-27T07:36:44.733Z,12.19
2019-03-27T07:37:25.992Z,12.12
2019-03-27T07:38:10.494Z,12.23
2019-03-27T07:38:51.322Z,12.29
2019-03-27T07:39:32.669Z,12.25
2019-03-27T07:40:12.492Z,12.26
2019-03-27T07:40:53.802Z,12.15
2019-03-27T07:41:34.729Z,12.16
2019-03-27T07:42:15.392Z,12.25
2019-03-27T07:42:55.990Z,12.22
2019-03-27T07:43:36.881Z,12.25
2019-03-27T07:44:17.958Z,12.33
2019-03-27T07:44:58.772Z,12.3
2019-03-27T07:45:39.359Z,12.26
2019-03-27T07:46:20.828Z,12.25
2019-03-27T07:47:01.668Z,12.29
2019-03-27T07:47:41.665Z,12.15
2019-03-27T07:48:22.393Z,12.19
2019-03-27T07:49:02.923Z,12.11
2019-03-27T07:49:43.432Z,12.22
2019-03-27T07:50:24.138Z,12.21
2019-03-27T07:51:04.752Z,12.13
2019-03-27T07:51:45.124Z,12.23
2019-03-27T07:52:25.652Z,12.22
2019-03-27T07:53:07.172Z,12.3
2019-03-27T07:53:47.173Z,12.37
2019-03-27T07:54:29.116Z,12.38
2019-03-27T07:55:19.021Z,12.37
2019-03-27T07:56:57.389Z,12.48
2019-03-27T07:57:37.822Z,12.51
2019-03-27T07:58:18.287Z,12.52
2019-03-27T07:58:59.841Z,12.41
2019-03-27T07:59:39.452Z,12.38
2019-03-27T08:00:19.832Z,12.34
2019-03-27T08:01:01.121Z,12.3
2019-03-27T08:01:42.614Z,12.26
2019-03-27T08:02:23.572Z,12.38
2019-03-27T08:03:04.031Z,12.34
2019-03-27T08:03:44.712Z,12.31
2019-03-27T08:04:27.022Z,12.34
2019-03-27T08:05:08.433Z,12.34
2019-03-27T08:05:48.918Z,12.37
2019-03-27T08:06:30.192Z,12.34
2019-03-27T08:07:10.060Z,12.3
2019-03-27T08:07:51.761Z,12.37
2019-03-27T08:08:31.693Z,12.31
2019-03-27T08:09:12.418Z,12.41
2019-03-27T08:09:53.150Z,12.37
2019-03-27T08:10:40.121Z,12.3
2019-03-27T08:11:21.910Z,12.4
2019-03-27T08:12:02.605Z,12.33
2019-03-27T08:12:47.130Z,12.37
2019-03-27T08:13:26.811Z,12.4
2019-03-27T08:14:07.354Z,12.4
2019-03-27T08:14:48.165Z,12.44
2019-03-27T08:15:28.584Z,12.49
2019-03-27T08:16:09.131Z,12.44
2019-03-27T08:16:49.670Z,12.59
2019-03-27T08:17:30.161Z,12.62
2019-03-27T08:18:10.618Z,12.63
2019-03-27T08:18:52.152Z,12.79
2019-03-27T08:19:33.392Z,12.84
2019-03-27T08:21:08.354Z,12.81
2019-03-27T08:21:48.816Z,12.79
2019-03-27T08:22:29.218Z,12.95
2019-03-27T08:23:09.679Z,12.94
2019-03-27T08:23:50.088Z,13.03
2019-03-27T08:24:30.538Z,13.12
2019-03-27T08:25:11.038Z,13.17
2019-03-27T08:25:52.591Z,13.16
2019-03-27T08:26:33.036Z,13.31
2019-03-27T08:27:14.603Z,13.22
2019-03-27T08:27:54.021Z,13.25
2019-03-27T08:28:34.794Z,13.25
2019-03-27T08:29:15.058Z,13.24
2019-03-27T08:29:55.477Z,13.27
2019-03-27T08:30:37.024Z,13.29
2019-03-27T08:31:17.457Z,13.28
2019-03-27T08:31:57.893Z,13.43
2019-03-27T08:32:38.309Z,13.35
2019-03-27T08:33:18.746Z,13.46
2019-03-27T08:33:59.263Z,13.36
2019-03-27T08:34:39.952Z,13.46
2019-03-27T08:35:20.379Z,13.48
2019-03-27T08:36:01.452Z,13.43
2019-03-27T08:36:42.175Z,13.47
2019-03-27T08:37:22.673Z,13.55
2019-03-27T08:38:03.594Z,13.61
2019-03-27T08:38:44.400Z,13.48
2019-03-27T08:39:24.921Z,13.46
2019-03-27T08:40:05.338Z,13.51
2019-03-27T08:40:45.730Z,13.55
2019-03-27T08:41:27.188Z,13.54
2019-03-27T08:42:07.638Z,13.71
2019-03-27T08:42:48.065Z,13.63
2019-03-27T08:43:28.671Z,13.76
2019-03-27T08:44:09.425Z,13.91
2019-03-27T08:44:49.875Z,13.86
2019-03-27T08:45:30.507Z,13.91
2019-03-27T08:46:12.911Z,13.99
2019-03-27T08:46:53.568Z,13.93
2019-03-27T08:47:34.323Z,13.98
2019-03-27T08:48:20.701Z,14.09
2019-03-27T08:49:00.503Z,14.09
2019-03-27T08:49:41.277Z,14.09
2019-03-27T08:50:21.804Z,14.12
2019-03-27T08:51:02.416Z,14.02
2019-03-27T08:51:44.825Z,14.13
2019-03-27T08:52:25.751Z,14.09
2019-03-27T08:53:07.176Z,14.09
2019-03-27T08:53:47.549Z,14.13
2019-03-27T08:54:28.685Z,14.24
2019-03-27T08:55:08.567Z,14.26
2019-03-27T08:55:49.418Z,14.26
2019-03-27T08:56:30.065Z,14.41
2019-03-27T08:57:11.120Z,14.21
2019-03-27T08:57:51.997Z,14.27
2019-03-27T08:58:33.259Z,14.24
2019-03-27T08:59:14.703Z,14.27
2019-03-27T08:59:55.523Z,14.39
2019-03-27T09:00:36.257Z,14.38
2019-03-27T09:01:17.711Z,14.35
2019-03-27T09:01:58.687Z,14.39
2019-03-27T09:02:38.309Z,14.38
2019-03-27T09:03:18.835Z,14.48
2019-03-27T09:04:02.343Z,14.69
2019-03-27T09:04:43.687Z,14.69
2019-03-27T09:05:23.677Z,14.69
2019-03-27T09:06:04.248Z,14.69
2019-03-27T09:06:45.212Z,14.67
2019-03-27T09:07:27.188Z,14.8
2019-03-27T09:08:07.343Z,14.78
2019-03-27T09:10:05.403Z,14.9
2019-03-27T09:10:49.145Z,14.98
2019-03-27T09:11:29.565Z,15
2019-03-27T09:12:10.563Z,15.05
2019-03-27T09:12:51.344Z,15.15
2019-03-27T09:13:32.100Z,15.25
2019-03-27T09:14:12.733Z,15.22
2019-03-27T09:14:53.474Z,15.35
2019-03-27T09:15:33.968Z,15.3
2019-03-27T09:16:14.651Z,15.4
2019-03-27T09:16:55.370Z,15.34
2019-03-27T09:17:36.320Z,15.35
2019-03-27T09:18:17.625Z,15.34
2019-03-27T09:18:58.553Z,15.25
2019-03-27T09:19:39.735Z,15.38
2019-03-27T09:20:19.672Z,15.49
2019-03-27T09:21:00.483Z,15.6
2019-03-27T09:21:42.617Z,15.76
2019-03-27T09:22:22.774Z,15.93
2019-03-27T09:23:03.453Z,16.22
2019-03-27T09:23:45.824Z,16.44
2019-03-27T09:24:25.138Z,16.63
2019-03-27T09:25:06.200Z,16.84
2019-03-27T09:25:46.754Z,17
2019-03-27T09:26:27.269Z,17.14
2019-03-27T09:27:07.703Z,17.22
2019-03-27T09:27:48.067Z,17.46
2019-03-27T09:28:28.554Z,17.73
2019-03-27T09:29:08.978Z,17.96
2019-03-27T09:29:49.477Z,18.19
2019-03-27T09:30:30.077Z,18.2
2019-03-27T09:31:10.584Z,18.29
2019-03-27T09:31:51.156Z,18.38
2019-03-27T09:32:31.605Z,18.35
2019-03-27T09:33:12.008Z,18.51
2019-03-27T09:33:52.486Z,18.51
2019-03-27T09:34:32.977Z,18.59
2019-03-27T09:35:13.370Z,18.86
2019-03-27T09:35:54.666Z,19.07
2019-03-27T09:36:35.119Z,19.1